Hellas Glory — 9HWN9 — position and weather

sailwx.info

Track history (hours):
 
Tides and Currents Weather Stations Pressure Air Temp Water Temp Dewpoint Dewpoint Depression Visibility Wind Speed Wind Dir Waves Ship Positions

Hellas Glory

Last reported at 2018-Apr-23 11:30 UTC. Time now 2018-Apr-23 11:52 UTC.
Position N 01°11' E 103°42'.

Length 225 m; draft 6 m.

Type: Tanker. MMSI: 249636000.

Date/timePositionNaut miles runAvg speedWind from/ knotsBaromVisibWave heightAir tempDewpointWater temp
2018-Apr-23 11:30N 01°11' E 103°42'0 0.0
2018-Apr-23 10:59N 01°11' E 103°42'0 0.0
2018-Apr-23 10:27N 01°11' E 103°42'0 0.1
2018-Apr-23 09:57N 01°11' E 103°42'0 0.3
2018-Apr-23 09:30N 01°11' E 103°42'0 0.1
2018-Apr-23 08:57N 01°11' E 103°42'0 0.1
2018-Apr-23 08:30N 01°11' E 103°42'0 0.2
2018-Apr-23 07:57N 01°11' E 103°43'1 2.3
2018-Apr-23 07:29N 01°10' E 103°42'5 9.8
2018-Apr-23 07:00N 01°14' E 103°39'3 5.8
2018-Apr-23 06:29N 01°17' E 103°39'1 1.1
2018-Apr-23 05:57N 01°18' E 103°39'0 0.0
2018-Apr-23 05:25N 01°18' E 103°39'0 0.0
2018-Apr-23 04:32N 01°18' E 103°39'0 0.0
2018-Apr-23 04:24N 01°18' E 103°39'0 0.0
2018-Apr-23 03:59N 01°18' E 103°39'0 0.0
2018-Apr-23 03:30N 01°18' E 103°39'0 0.0
2018-Apr-23 02:55N 01°18' E 103°39'0 0.0
2018-Apr-23 01:28N 01°18' E 103°39'0 0.0
2018-Apr-23 00:52N 01°18' E 103°39'0 0.0
2018-Apr-23 00:22N 01°18' E 103°39'0 0.0
2018-Apr-23 00:00N 01°18' E 103°39'  
2018-Apr-17 05:59N 01°18' E 103°39'0 0.0
2018-Apr-17 05:30N 01°18' E 103°39'0 0.0
2018-Apr-17 04:59N 01°18' E 103°39'0 0.0
2018-Apr-17 04:30N 01°18' E 103°39'0 0.0
2018-Apr-17 03:59N 01°18' E 103°39'0 0.0
2018-Apr-17 03:30N 01°18' E 103°39'0 0.0
2018-Apr-17 03:00N 01°18' E 103°39'0 0.0
2018-Apr-17 02:30N 01°18' E 103°39'0 0.0
2018-Apr-17 01:59N 01°18' E 103°39'0 0.0
2018-Apr-17 01:30N 01°18' E 103°39'0 0.0
2018-Apr-17 01:00N 01°18' E 103°39'0 0.0
2018-Apr-17 00:30N 01°18' E 103°39'0 0.0
2018-Apr-16 23:59N 01°18' E 103°39'0 0.0
2018-Apr-16 23:30N 01°18' E 103°39'0 0.0
2018-Apr-16 22:59N 01°18' E 103°39'0 0.0
2018-Apr-16 22:30N 01°18' E 103°39'0 0.0
2018-Apr-16 21:59N 01°18' E 103°39'0 0.0
2018-Apr-16 21:30N 01°18' E 103°39'0 0.0
2018-Apr-16 20:59N 01°18' E 103°39'0 0.0
2018-Apr-16 20:30N 01°18' E 103°39'0 0.0
2018-Apr-16 19:59N 01°18' E 103°39'0 0.0
2018-Apr-16 19:30N 01°18' E 103°39'0 0.0
2018-Apr-16 18:59N 01°18' E 103°39'0 0.0
2018-Apr-16 18:27N 01°18' E 103°39'0 0.0
2018-Apr-16 17:59N 01°18' E 103°39'0 0.0
2018-Apr-16 17:30N 01°18' E 103°39'0 0.0
2018-Apr-16 16:59N 01°18' E 103°39'0 0.0
2018-Apr-16 16:29N 01°18' E 103°39'0 0.0
2018-Apr-16 16:00N 01°18' E 103°39'0 0.0
2018-Apr-16 15:30N 01°18' E 103°39'0 0.0
2018-Apr-16 14:59N 01°18' E 103°39'0 0.0
2018-Apr-16 14:30N 01°18' E 103°39'0 0.0
2018-Apr-16 13:58N 01°18' E 103°39'0 0.0
2018-Apr-16 13:25N 01°18' E 103°39'0 0.0
2018-Apr-16 12:59N 01°18' E 103°39'0 0.0
2018-Apr-16 12:30N 01°18' E 103°39'0 0.0
2018-Apr-16 11:59N 01°18' E 103°39'0 0.0
2018-Apr-16 11:30N 01°18' E 103°39'0 0.0
2018-Apr-16 10:59N 01°18' E 103°39'0 0.0
2018-Apr-16 10:29N 01°18' E 103°39'0 0.0
2018-Apr-16 09:55N 01°18' E 103°39'0 0.0
2018-Apr-16 09:30N 01°18' E 103°39'0 0.0
2018-Apr-16 08:59N 01°18' E 103°39'0 0.0
2018-Apr-16 08:29N 01°18' E 103°39'0 0.0
2018-Apr-16 07:59N 01°18' E 103°39'0 0.0
2018-Apr-16 07:30N 01°18' E 103°39'0 0.0
2018-Apr-16 06:59N 01°18' E 103°39'0 0.0
2018-Apr-16 06:30N 01°18' E 103°39'0 0.0
2018-Apr-16 05:59N 01°18' E 103°39'0 0.0
2018-Apr-16 05:30N 01°18' E 103°39'0 0.0
2018-Apr-16 04:59N 01°18' E 103°39'0 0.0
2018-Apr-16 04:30N 01°18' E 103°39'  
Track history (hours):
 
Tides and Currents Weather Stations Pressure Air Temp Water Temp Dewpoint Dewpoint Depression Visibility Wind Speed Wind Dir Waves Ship Positions

Hellas Glory

Last reported at 2018-Apr-23 11:30 UTC. Time now 2018-Apr-23 11:52 UTC.
Position N 01°11' E 103°42'.

Length 225 m; draft 6 m.

Type: Tanker. MMSI: 249636000.

Date/timePositionNaut miles runAvg speedWind from/ knotsBaromVisibWave heightAir tempDewpointWater temp
2018-Apr-23 11:30N 01°11' E 103°42'0 0.0
2018-Apr-23 10:59N 01°11' E 103°42'0 0.0
2018-Apr-23 10:27N 01°11' E 103°42'0 0.1
2018-Apr-23 09:57N 01°11' E 103°42'0 0.3
2018-Apr-23 09:30N 01°11' E 103°42'0 0.1
2018-Apr-23 08:57N 01°11' E 103°42'0 0.1
2018-Apr-23 08:30N 01°11' E 103°42'0 0.2
2018-Apr-23 07:57N 01°11' E 103°43'1 2.3
2018-Apr-23 07:29N 01°10' E 103°42'5 9.8
2018-Apr-23 07:00N 01°14' E 103°39'3 5.8
2018-Apr-23 06:29N 01°17' E 103°39'1 1.1
2018-Apr-23 05:57N 01°18' E 103°39'0 0.0
2018-Apr-23 05:25N 01°18' E 103°39'0 0.0
2018-Apr-23 04:32N 01°18' E 103°39'0 0.0
2018-Apr-23 04:24N 01°18' E 103°39'0 0.0
2018-Apr-23 03:59N 01°18' E 103°39'0 0.0
2018-Apr-23 03:30N 01°18' E 103°39'0 0.0
2018-Apr-23 02:55N 01°18' E 103°39'0 0.0
2018-Apr-23 01:28N 01°18' E 103°39'0 0.0
2018-Apr-23 00:52N 01°18' E 103°39'0 0.0
2018-Apr-23 00:22N 01°18' E 103°39'0 0.0
2018-Apr-23 00:00N 01°18' E 103°39'  
2018-Apr-17 05:59N 01°18' E 103°39'0 0.0
2018-Apr-17 05:30N 01°18' E 103°39'0 0.0
2018-Apr-17 04:59N 01°18' E 103°39'0 0.0
2018-Apr-17 04:30N 01°18' E 103°39'0 0.0
2018-Apr-17 03:59N 01°18' E 103°39'0 0.0
2018-Apr-17 03:30N 01°18' E 103°39'0 0.0
2018-Apr-17 03:00N 01°18' E 103°39'0 0.0
2018-Apr-17 02:30N 01°18' E 103°39'0 0.0
2018-Apr-17 01:59N 01°18' E 103°39'0 0.0
2018-Apr-17 01:30N 01°18' E 103°39'0 0.0
2018-Apr-17 01:00N 01°18' E 103°39'0 0.0
2018-Apr-17 00:30N 01°18' E 103°39'0 0.0
2018-Apr-16 23:59N 01°18' E 103°39'0 0.0
2018-Apr-16 23:30N 01°18' E 103°39'0 0.0
2018-Apr-16 22:59N 01°18' E 103°39'0 0.0
2018-Apr-16 22:30N 01°18' E 103°39'0 0.0
2018-Apr-16 21:59N 01°18' E 103°39'0 0.0
2018-Apr-16 21:30N 01°18' E 103°39'0 0.0
2018-Apr-16 20:59N 01°18' E 103°39'0 0.0
2018-Apr-16 20:30N 01°18' E 103°39'0 0.0
2018-Apr-16 19:59N 01°18' E 103°39'0 0.0
2018-Apr-16 19:30N 01°18' E 103°39'0 0.0
2018-Apr-16 18:59N 01°18' E 103°39'0 0.0
2018-Apr-16 18:27N 01°18' E 103°39'0 0.0
2018-Apr-16 17:59N 01°18' E 103°39'0 0.0
2018-Apr-16 17:30N 01°18' E 103°39'0 0.0
2018-Apr-16 16:59N 01°18' E 103°39'0 0.0
2018-Apr-16 16:29N 01°18' E 103°39'0 0.0
2018-Apr-16 16:00N 01°18' E 103°39'0 0.0
2018-Apr-16 15:30N 01°18' E 103°39'0 0.0
2018-Apr-16 14:59N 01°18' E 103°39'0 0.0
2018-Apr-16 14:30N 01°18' E 103°39'0 0.0
2018-Apr-16 13:58N 01°18' E 103°39'0 0.0
2018-Apr-16 13:25N 01°18' E 103°39'0 0.0
2018-Apr-16 12:59N 01°18' E 103°39'0 0.0
2018-Apr-16 12:30N 01°18' E 103°39'0 0.0
2018-Apr-16 11:59N 01°18' E 103°39'0 0.0
2018-Apr-16 11:30N 01°18' E 103°39'0 0.0
2018-Apr-16 10:59N 01°18' E 103°39'0 0.0
2018-Apr-16 10:29N 01°18' E 103°39'0 0.0
2018-Apr-16 09:55N 01°18' E 103°39'0 0.0
2018-Apr-16 09:30N 01°18' E 103°39'0 0.0
2018-Apr-16 08:59N 01°18' E 103°39'0 0.0
2018-Apr-16 08:29N 01°18' E 103°39'0 0.0
2018-Apr-16 07:59N 01°18' E 103°39'0 0.0
2018-Apr-16 07:30N 01°18' E 103°39'0 0.0
2018-Apr-16 06:59N 01°18' E 103°39'0 0.0
2018-Apr-16 06:30N 01°18' E 103°39'0 0.0
2018-Apr-16 05:59N 01°18' E 103°39'0 0.0
2018-Apr-16 05:30N 01°18' E 103°39'0 0.0
2018-Apr-16 04:59N 01°18' E 103°39'0 0.0
2018-Apr-16 04:30N 01°18' E 103°39'  

Dump ship's entire track history